Time;durP1;ratioP1;P1;durP2;ratioP2;P2;SDS_P1;SDS_P2;PMS_P1;PMS_P2;Temp;Humidity;BMP_temperature;BMP_pressure;BME280_temperature;BME280_humidity;BME280_pressure;Samples;Min_cycle;Max_cycle;Signal;HPM_P1;HPM_P2
2022/05/19 00:02:04;;;;;;;1.58;1.48;;;23.50;42.50;;;-147.20;100.00;58430.41;5077047;28;20049;-18
2022/05/19 00:04:30;;;;;;;1.75;1.65;;;23.50;42.50;;;-147.20;100.00;58430.41;5094279;28;20045;-18
2022/05/19 00:06:56;;;;;;;1.60;1.50;;;23.50;42.50;;;-147.20;100.00;58430.41;5094439;28;20047;-19
2022/05/19 00:09:22;;;;;;;2.05;1.70;;;23.50;42.40;;;-147.20;100.00;58430.41;5074741;28;20048;-19
2022/05/19 00:11:50;;;;;;;1.77;1.67;;;23.50;42.50;;;-147.20;100.00;58430.41;5094567;28;20044;-19
2022/05/19 00:14:17;;;;;;;1.63;1.52;;;23.50;42.50;;;-147.20;100.00;58430.41;5074074;28;20045;-19
2022/05/19 00:16:43;;;;;;;1.67;1.58;;;23.50;42.50;;;-147.20;100.00;58430.41;5094277;28;20052;-19
2022/05/19 00:19:11;;;;;;;1.63;1.50;;;23.50;42.50;;;-147.20;100.00;58430.41;5093986;28;20419;-19
2022/05/19 00:21:38;;;;;;;1.67;1.58;;;23.50;42.50;;;-147.20;100.00;58430.41;5094071;28;20051;-19
2022/05/19 00:24:05;;;;;;;1.60;1.33;;;23.40;42.40;;;-147.20;100.00;58430.41;5094227;28;20498;-19
2022/05/19 00:26:31;;;;;;;1.67;1.58;;;23.50;43.00;;;-147.20;100.00;58430.41;5093860;28;20083;-19
2022/05/19 00:28:57;;;;;;;1.60;1.50;;;23.50;42.50;;;-147.20;100.00;58430.41;5093893;28;20480;-19
2022/05/19 00:31:23;;;;;;;1.67;1.58;;;23.50;42.50;;;-147.20;100.00;58430.41;5094581;28;20093;-19
2022/05/19 00:33:48;;;;;;;1.67;1.58;;;23.50;42.50;;;-147.20;100.00;58430.41;5094023;28;20040;-19
2022/05/19 00:36:17;;;;;;;1.60;1.50;;;23.50;42.50;;;-147.20;100.00;58430.41;5093950;28;20052;-19
2022/05/19 00:38:44;;;;;;;1.70;1.60;;;23.40;42.40;;;-147.20;100.00;58430.41;5093738;28;20047;-19
2022/05/19 00:41:12;;;;;;;1.83;1.50;;;23.40;42.40;;;-147.20;100.00;58430.41;5093709;28;20051;-19
2022/05/19 00:43:43;;;;;;;1.70;1.45;;;23.40;42.40;;;-147.20;100.00;58430.41;5094063;28;20127;-19
2022/05/19 00:46:47;;;;;;;1.75;1.65;;;23.40;42.50;;;-147.20;100.00;58430.41;5093837;28;20047;-19
2022/05/19 00:49:30;;;;;;;1.63;1.52;;;23.40;42.40;;;-147.20;100.00;58430.41;5091969;28;20399;-20
2022/05/19 00:52:18;;;;;;;1.40;1.30;;;23.40;42.40;;;-147.20;100.00;58430.41;5093786;28;20055;-19
2022/05/19 00:54:51;;;;;;;1.50;1.40;;;23.40;42.40;;;-147.20;100.00;58430.41;5092338;28;20194;-19
2022/05/19 00:57:23;;;;;;;1.55;1.45;;;23.40;42.40;;;-147.20;100.00;58430.41;5074886;28;20067;-19
2022/05/19 00:59:56;;;;;;;1.65;1.55;;;23.50;42.50;;;-147.20;100.00;58430.41;5093522;28;20125;-19
2022/05/19 01:02:27;;;;;;;1.90;1.67;;;23.40;42.40;;;-147.20;100.00;58430.41;5093894;28;20483;-19
2022/05/19 01:05:03;;;;;;;1.63;1.52;;;23.40;42.40;;;-147.20;100.00;58430.41;5093595;28;20093;-19
2022/05/19 01:08:02;;;;;;;1.42;1.33;;;23.50;42.50;;;-147.20;100.00;58430.41;5073949;28;20049;-19
2022/05/19 01:10:29;;;;;;;1.70;1.60;;;23.40;42.50;;;-147.20;100.00;58430.41;5093727;28;20036;-19
2022/05/19 01:12:54;;;;;;;1.48;1.38;;;23.40;42.40;;;-147.20;100.00;58430.41;5093306;28;20109;-19
2022/05/19 01:15:22;;;;;;;1.60;1.50;;;23.40;42.40;;;-147.20;100.00;58430.41;5093110;28;20048;-19
2022/05/19 01:17:49;;;;;;;1.65;1.45;;;23.40;42.40;;;-147.20;100.00;58430.41;5074110;28;20055;-19
2022/05/19 01:20:25;;;;;;;2.20;1.80;;;23.40;42.40;;;-147.20;100.00;58430.41;5093141;28;20055;-19
2022/05/19 01:23:20;;;;;;;1.58;1.48;;;23.40;42.40;;;-147.20;100.00;58430.41;5075214;28;20063;-19
2022/05/19 01:26:24;;;;;;;1.52;1.42;;;23.40;42.40;;;-147.20;100.00;58430.41;5075065;28;20040;-19
2022/05/19 01:28:50;;;;;;;1.70;1.60;;;23.40;42.40;;;-147.20;100.00;58430.41;5092707;28;20055;-19
2022/05/19 01:31:49;;;;;;;1.58;1.48;;;23.40;42.50;;;-147.20;100.00;58430.41;5075221;28;20156;-19
2022/05/19 01:34:19;;;;;;;2.15;1.55;;;23.40;42.40;;;-147.20;100.00;58430.41;5093099;28;20376;-19
2022/05/19 01:36:45;;;;;;;1.65;1.55;;;23.40;42.40;;;-147.20;100.00;58430.41;5093291;28;20484;-19
2022/05/19 01:39:18;;;;;;;1.70;1.60;;;23.40;42.40;;;-147.20;100.00;58430.41;5092801;28;20055;-19
2022/05/19 01:42:17;;;;;;;1.50;1.40;;;23.40;42.40;;;-147.20;100.00;58430.41;5093381;28;20055;-19
2022/05/19 01:45:12;;;;;;;1.65;1.55;;;23.40;42.50;;;-147.20;100.00;58430.41;5092786;28;20492;-19
2022/05/19 01:47:47;;;;;;;1.60;1.50;;;23.40;42.50;;;-147.20;100.00;58430.41;5060166;28;20471;-19
2022/05/19 01:50:29;;;;;;;1.40;1.30;;;23.40;42.40;;;-147.20;100.00;58430.41;5092493;28;20044;-19
2022/05/19 01:53:07;;;;;;;1.60;1.50;;;23.40;42.40;;;-147.20;100.00;58430.41;5093419;28;20071;-19
2022/05/19 01:55:50;;;;;;;1.60;1.50;;;23.40;42.40;;;-147.20;100.00;58430.41;5074785;28;20415;-19
2022/05/19 01:58:46;;;;;;;1.60;1.50;;;23.40;43.00;;;-147.20;100.00;58430.41;5072415;28;20048;-19
2022/05/19 02:01:15;;;;;;;1.67;1.58;;;23.40;42.40;;;-147.20;100.00;58430.41;5092964;28;20080;-19
2022/05/19 02:04:07;;;;;;;1.48;1.38;;;23.40;42.50;;;-147.20;100.00;58430.41;5058331;28;20147;-19
2022/05/19 02:06:59;;;;;;;1.60;1.50;;;23.40;42.40;;;-147.20;100.00;58430.41;5092665;28;20086;-19
2022/05/19 02:09:32;;;;;;;1.55;1.45;;;23.40;42.40;;;-147.20;100.00;58430.41;5092630;28;20048;-19
2022/05/19 02:12:00;;;;;;;1.40;1.30;;;23.40;42.40;;;-147.20;100.00;58430.41;5074478;28;20158;-19
2022/05/19 02:14:38;;;;;;;1.67;1.58;;;23.40;42.40;;;-147.20;100.00;58430.41;5092544;28;20044;-19
2022/05/19 02:17:09;;;;;;;1.55;1.45;;;23.40;42.40;;;-147.20;100.00;58430.41;5092501;28;20047;-19
2022/05/19 02:19:41;;;;;;;1.65;1.55;;;23.40;42.50;;;-147.20;100.00;58430.41;5093153;28;20046;-19
2022/05/19 02:22:11;;;;;;;1.70;1.60;;;23.40;42.40;;;-147.20;100.00;58430.41;5074376;28;20158;-19
2022/05/19 02:24:45;;;;;;;1.40;1.30;;;23.40;42.40;;;-147.20;100.00;58430.41;5093001;28;20048;-19
2022/05/19 02:27:42;;;;;;;1.55;1.45;;;23.40;42.40;;;-147.20;100.00;58430.41;5074886;28;20052;-19
2022/05/19 02:30:12;;;;;;;1.85;1.50;;;23.40;42.50;;;-147.20;100.00;58430.41;5078201;28;20485;-19
2022/05/19 02:32:38;;;;;;;1.77;1.67;;;23.40;43.00;;;-147.20;100.00;58430.41;5076303;28;20095;-19
2022/05/19 02:35:07;;;;;;;1.60;1.50;;;23.40;42.50;;;-147.20;100.00;58430.41;5096242;28;20044;-19
2022/05/19 02:37:34;;;;;;;1.50;1.40;;;23.40;42.40;;;-147.20;100.00;58430.41;5095859;28;20059;-19
2022/05/19 02:40:00;;;;;;;2.03;1.45;;;23.40;42.40;;;-147.20;100.00;58430.41;5096185;28;20060;-19
2022/05/19 02:42:26;;;;;;;1.58;1.48;;;23.40;42.40;;;-147.20;100.00;58430.41;5095997;28;20484;-19
2022/05/19 02:44:52;;;;;;;1.50;1.40;;;23.40;42.40;;;-147.20;100.00;58430.41;5096128;28;20059;-19
2022/05/19 02:47:17;;;;;;;1.52;1.42;;;23.40;42.40;;;-147.20;100.00;58430.41;5095552;28;20056;-19
2022/05/19 02:49:43;;;;;;;1.25;1.15;;;23.40;42.40;;;-147.20;100.00;58430.41;5095626;28;20499;-19
2022/05/19 02:52:09;;;;;;;1.58;1.48;;;23.40;42.50;;;-147.20;100.00;58430.41;5095519;28;20048;-19
2022/05/19 02:54:35;;;;;;;1.40;1.30;;;23.40;42.40;;;-147.20;100.00;58430.41;5095527;28;20047;-19
2022/05/19 02:57:00;;;;;;;1.40;1.30;;;23.40;42.40;;;-147.20;100.00;58430.41;5095714;28;20044;-18
2022/05/19 02:59:26;;;;;;;1.77;1.67;;;23.40;42.40;;;-147.20;100.00;58430.41;5095483;28;20039;-19
2022/05/19 03:01:52;;;;;;;1.40;1.30;;;23.30;42.30;;;-147.20;100.00;58430.41;5095759;28;20472;-19
2022/05/19 03:04:18;;;;;;;1.40;1.30;;;23.40;42.40;;;-147.20;100.00;58430.41;5095430;28;20051;-19
2022/05/19 03:06:44;;;;;;;1.67;1.58;;;23.40;42.50;;;-147.20;100.00;58430.41;5095652;28;20052;-19
2022/05/19 03:09:10;;;;;;;1.70;1.40;;;23.40;42.40;;;-147.20;100.00;58430.41;5095058;28;20050;-19
2022/05/19 03:11:35;;;;;;;1.55;1.45;;;23.40;42.50;;;-147.20;100.00;58430.41;5095845;28;20083;-19
2022/05/19 03:14:04;;;;;;;1.73;1.63;;;23.40;42.40;;;-147.20;100.00;58430.41;5095492;28;20387;-19
2022/05/19 03:16:30;;;;;;;1.50;1.40;;;23.30;42.30;;;-147.20;100.00;58430.41;5095224;28;20047;-19
2022/05/19 03:18:56;;;;;;;1.70;1.60;;;23.40;42.40;;;-147.20;100.00;58430.41;5095101;28;20044;-19
2022/05/19 03:21:22;;;;;;;1.50;1.40;;;23.40;42.40;;;-147.20;100.00;58430.41;5095013;28;20043;-19
2022/05/19 03:23:48;;;;;;;1.50;1.40;;;23.40;42.40;;;-147.20;100.00;58430.41;5095044;28;20063;-19
2022/05/19 03:26:13;;;;;;;1.63;1.52;;;23.40;42.40;;;-147.20;100.00;58430.41;5095398;28;20055;-19
2022/05/19 03:28:39;;;;;;;1.48;1.38;;;23.30;42.30;;;-147.20;100.00;58430.41;5094876;28;20492;-19
2022/05/19 03:31:05;;;;;;;1.50;1.40;;;23.30;42.30;;;-147.20;100.00;58430.41;5094987;28;20476;-19
2022/05/19 03:33:31;;;;;;;1.55;1.45;;;23.30;42.30;;;-147.20;100.00;58430.41;5094892;28;20048;-19
2022/05/19 03:35:58;;;;;;;1.85;1.50;;;23.30;42.30;;;-147.20;100.00;58430.41;5095132;28;20040;-19
2022/05/19 03:38:25;;;;;;;1.73;1.55;;;23.40;42.40;;;-147.20;100.00;58430.41;5094868;28;20121;-19
2022/05/19 03:40:50;;;;;;;1.40;1.30;;;23.40;42.30;;;-147.20;100.00;58430.41;5093679;28;20043;-19
2022/05/19 03:43:16;;;;;;;1.33;1.23;;;23.40;42.40;;;-147.20;100.00;58430.41;5094858;28;20044;-19
2022/05/19 03:45:42;;;;;;;1.55;1.45;;;23.40;42.40;;;-147.20;100.00;58430.41;5095027;28;20055;-19
2022/05/19 03:48:09;;;;;;;1.70;1.60;;;23.40;42.40;;;-147.20;100.00;58430.41;5094553;28;20044;-19
2022/05/19 03:50:36;;;;;;;1.55;1.45;;;23.40;42.30;;;-147.20;100.00;58430.41;5094593;28;20048;-19
2022/05/19 03:53:02;;;;;;;1.55;1.45;;;23.40;42.40;;;-147.20;100.00;58430.41;5094673;28;20067;-19
2022/05/19 03:55:29;;;;;;;1.58;1.48;;;23.40;42.30;;;-147.20;100.00;58430.41;5094596;28;20101;-20
2022/05/19 03:57:55;;;;;;;1.55;1.42;;;23.40;42.30;;;-147.20;100.00;58430.41;5094444;28;20060;-19
2022/05/19 04:00:21;;;;;;;1.42;1.33;;;23.40;42.30;;;-147.20;100.00;58430.41;5094529;28;20047;-19
2022/05/19 04:02:48;;;;;;;1.67;1.58;;;23.40;42.30;;;-147.20;100.00;58430.41;5094820;28;20048;-19
2022/05/19 04:05:15;;;;;;;1.38;1.27;;;23.40;42.30;;;-147.20;100.00;58430.41;5094336;28;20044;-19
2022/05/19 04:07:42;;;;;;;1.52;1.42;;;23.40;42.30;;;-147.20;100.00;58430.41;5094040;28;20052;-18
2022/05/19 04:10:09;;;;;;;1.50;1.40;;;23.40;42.30;;;-147.20;100.00;58430.41;5094713;28;20044;-19
2022/05/19 04:12:35;;;;;;;1.40;1.30;;;23.40;42.30;;;-147.20;100.00;58430.41;5094523;28;20044;-19
2022/05/19 04:15:03;;;;;;;1.40;1.30;;;23.40;42.30;;;-147.20;100.00;58430.41;5094288;28;20445;-19
2022/05/19 04:17:33;;;;;;;1.35;1.30;;;23.40;42.20;;;-147.20;100.00;58430.41;5094148;28;20189;-19
2022/05/19 04:20:01;;;;;;;1.38;1.27;;;23.40;42.20;;;-147.20;100.00;58430.41;5094132;28;20503;-19
2022/05/19 04:22:27;;;;;;;1.35;1.25;;;23.40;42.20;;;-147.20;100.00;58430.41;5093862;28;20095;-19
2022/05/19 04:24:53;;;;;;;1.45;1.35;;;23.40;42.20;;;-147.20;100.00;58430.41;5094187;28;20044;-19
2022/05/19 04:27:19;;;;;;;1.95;1.42;;;23.40;42.20;;;-147.20;100.00;58430.41;5094051;28;20044;-19
2022/05/19 04:29:44;;;;;;;1.50;1.40;;;23.40;42.20;;;-147.20;100.00;58430.41;5094174;28;20047;-19
2022/05/19 04:32:12;;;;;;;1.50;1.40;;;23.50;42.20;;;-147.20;100.00;58430.41;5076174;28;20085;-19
2022/05/19 04:34:37;;;;;;;1.60;1.50;;;23.50;42.20;;;-147.20;100.00;58430.41;5093859;28;20143;-19
2022/05/19 04:37:04;;;;;;;1.42;1.33;;;23.50;42.10;;;-147.20;100.00;58430.41;5094094;28;20052;-18
2022/05/19 04:39:29;;;;;;;1.55;1.45;;;23.50;42.10;;;-147.20;100.00;58430.41;5094011;28;20044;-19
2022/05/19 04:41:55;;;;;;;1.48;1.38;;;23.50;42.10;;;-147.20;100.00;58430.41;5094216;28;20072;-19
2022/05/19 04:44:21;;;;;;;1.40;1.30;;;23.50;42.00;;;-147.20;100.00;58430.41;5093825;28;20093;-18
2022/05/19 04:46:47;;;;;;;1.30;1.27;;;23.60;42.00;;;-147.20;100.00;58430.41;5093985;28;20079;-19
2022/05/19 04:49:12;;;;;;;1.58;1.48;;;23.60;42.00;;;-147.20;100.00;58430.41;5093764;28;20052;-19
2022/05/19 04:51:38;;;;;;;1.60;1.50;;;23.60;41.90;;;-147.20;100.00;58430.41;5093782;28;20048;-19
2022/05/19 04:54:04;;;;;;;1.50;1.40;;;23.70;41.90;;;-147.20;100.00;58430.41;5094148;28;20059;-19
2022/05/19 04:56:31;;;;;;;1.40;1.30;;;23.70;41.70;;;-147.20;100.00;58430.41;5075363;28;20484;-20
2022/05/19 04:58:57;;;;;;;1.50;1.40;;;23.70;41.70;;;-147.20;100.00;58430.41;5094002;28;20063;-19
2022/05/19 05:01:23;;;;;;;1.50;1.40;;;23.80;41.60;;;-147.20;100.00;58430.41;5093424;28;20048;-19
2022/05/19 05:03:48;;;;;;;1.30;1.30;;;23.80;41.60;;;-147.20;100.00;58430.41;5093539;28;20048;-19
2022/05/19 05:06:14;;;;;;;1.40;1.30;;;23.90;41.50;;;-147.20;100.00;58430.41;5093554;28;20040;-19
2022/05/19 05:08:40;;;;;;;1.63;1.30;;;23.90;41.40;;;-147.20;100.00;58430.41;5093043;28;20109;-19
2022/05/19 05:11:06;;;;;;;1.88;1.77;;;24.00;41.40;;;-147.20;100.00;58430.41;5093664;28;20062;-19
2022/05/19 05:13:31;;;;;;;1.52;1.42;;;24.00;41.30;;;-147.20;100.00;58430.41;5093352;28;20047;-19
2022/05/19 05:15:58;;;;;;;1.40;1.30;;;24.10;41.30;;;-147.20;100.00;58430.41;5093276;28;20036;-19
2022/05/19 05:18:25;;;;;;;1.58;1.48;;;24.10;41.20;;;-147.20;100.00;58430.41;5093271;28;20055;-19
2022/05/19 05:20:51;;;;;;;1.35;1.25;;;24.20;41.10;;;-147.20;100.00;58430.41;5093276;28;20047;-19
2022/05/19 05:23:17;;;;;;;1.05;1.05;;;24.20;41.10;;;-147.20;100.00;58430.41;5093166;28;20048;-19
2022/05/19 05:25:43;;;;;;;1.50;1.40;;;24.20;41.10;;;-147.20;100.00;58430.41;5093137;28;20472;-19
2022/05/19 05:28:08;;;;;;;1.20;1.10;;;24.20;41.00;;;-147.20;100.00;58430.41;5093233;28;20403;-20
2022/05/19 05:30:34;;;;;;;1.80;1.40;;;24.20;41.00;;;-147.20;100.00;58430.41;5092292;28;20056;-19
2022/05/19 05:33:06;;;;;;;1.55;1.45;;;24.20;41.00;;;-147.20;100.00;58430.41;5093355;28;20181;-19
2022/05/19 05:35:33;;;;;;;1.42;1.33;;;24.30;41.00;;;-147.20;100.00;58430.41;5093435;28;20075;-19
2022/05/19 05:37:59;;;;;;;1.50;1.40;;;24.20;41.00;;;-147.20;100.00;58430.41;5092643;28;20488;-19
2022/05/19 05:40:26;;;;;;;1.42;1.33;;;24.20;41.00;;;-147.20;100.00;58430.41;5092986;28;20194;-19
2022/05/19 05:42:52;;;;;;;1.45;1.35;;;24.20;41.00;;;-147.20;100.00;58430.41;5093129;28;20407;-19
2022/05/19 05:45:19;;;;;;;1.50;1.40;;;24.20;41.00;;;-147.20;100.00;58430.41;5092858;28;20495;-19
2022/05/19 05:47:44;;;;;;;1.40;1.30;;;24.20;41.00;;;-147.20;100.00;58430.41;5093309;28;20047;-19
2022/05/19 05:50:10;;;;;;;1.60;1.50;;;24.20;40.90;;;-147.20;100.00;58430.41;5092818;28;20499;-19
2022/05/19 05:52:36;;;;;;;1.27;1.23;;;24.20;40.90;;;-147.20;100.00;58430.41;5092698;28;20496;-19
2022/05/19 05:55:02;;;;;;;1.60;1.50;;;24.20;40.90;;;-147.20;100.00;58430.41;5092896;28;20048;-19
2022/05/19 05:57:28;;;;;;;1.10;1.10;;;24.30;40.90;;;-147.20;100.00;58430.41;5092530;28;20135;-19
2022/05/19 05:59:55;;;;;;;1.38;1.27;;;24.30;40.90;;;-147.20;100.00;58430.41;5092542;28;20078;-19
2022/05/19 06:02:22;;;;;;;1.40;1.30;;;24.30;40.90;;;-147.20;100.00;58430.41;5091933;28;20044;-19
2022/05/19 06:04:48;;;;;;;1.10;1.10;;;24.30;40.80;;;-147.20;100.00;58430.41;5093126;28;20052;-19
2022/05/19 06:07:13;;;;;;;1.20;1.20;;;24.30;40.80;;;-147.20;100.00;58430.41;5092294;28;20055;-19
2022/05/19 06:09:39;;;;;;;1.40;1.30;;;24.40;40.80;;;-147.20;100.00;58430.41;5092723;28;20368;-19
2022/05/19 06:12:06;;;;;;;1.60;1.50;;;24.40;40.80;;;-147.20;100.00;58430.41;5071764;28;20403;-19
2022/05/19 06:14:32;;;;;;;1.50;1.40;;;24.50;40.80;;;-147.20;100.00;58430.41;5092239;28;20052;-19
2022/05/19 06:16:58;;;;;;;1.25;1.20;;;24.50;40.60;;;-147.20;100.00;58430.41;5092462;28;20059;-19
2022/05/19 06:19:24;;;;;;;1.40;1.33;;;24.50;40.60;;;-147.20;100.00;58430.41;5092092;28;20048;-19
2022/05/19 06:21:49;;;;;;;1.60;1.50;;;24.60;40.60;;;-147.20;100.00;58430.41;5092437;28;20132;-19
2022/05/19 06:24:15;;;;;;;1.40;1.30;;;24.60;40.50;;;-147.20;100.00;58430.41;5092195;28;20050;-19
2022/05/19 06:26:41;;;;;;;1.42;1.35;;;24.60;40.50;;;-147.20;100.00;58430.41;5092346;28;20044;-19
2022/05/19 06:29:08;;;;;;;1.30;1.20;;;24.60;40.40;;;-147.20;100.00;58430.41;5092087;28;20059;-19
2022/05/19 06:31:34;;;;;;;1.10;1.10;;;24.60;40.40;;;-147.20;100.00;58430.41;5092201;28;20050;-19
2022/05/19 06:34:01;;;;;;;1.52;1.42;;;24.70;40.40;;;-147.20;100.00;58430.41;5092248;28;20500;-19
2022/05/19 06:36:27;;;;;;;1.52;1.42;;;24.70;40.40;;;-147.20;100.00;58430.41;5092164;28;20552;-19
2022/05/19 06:38:53;;;;;;;1.40;1.30;;;24.70;40.30;;;-147.20;100.00;58430.41;5092045;28;20043;-19
2022/05/19 06:44:05;;;;;;;1.30;1.20;;;24.70;40.30;;;-147.20;100.00;58430.41;5091773;28;20071;-19
2022/05/19 06:46:30;;;;;;;1.45;1.35;;;24.80;40.30;;;-147.20;100.00;58430.41;5092114;28;20048;-18
2022/05/19 06:48:57;;;;;;;1.33;1.23;;;24.80;40.30;;;-147.20;100.00;58430.41;5091851;28;20040;-19
2022/05/19 06:51:24;;;;;;;1.25;1.25;;;24.80;40.30;;;-147.20;100.00;58430.41;5092153;28;20071;-19
2022/05/19 06:53:51;;;;;;;1.38;1.27;;;24.90;40.20;;;-147.20;100.00;58430.41;5092046;28;20052;-19
2022/05/19 06:56:16;;;;;;;1.50;1.40;;;24.90;40.10;;;-147.20;100.00;58430.41;5091992;28;20052;-20
2022/05/19 06:58:42;;;;;;;1.52;1.42;;;25.00;40.00;;;-147.20;100.00;58430.41;5091849;28;20048;-19
2022/05/19 07:01:08;;;;;;;1.17;1.17;;;25.00;39.90;;;-147.20;100.00;58430.41;5092007;28;20396;-19
2022/05/19 07:03:34;;;;;;;1.27;1.20;;;25.10;39.90;;;-147.20;100.00;58430.41;5091727;28;20515;-19
2022/05/19 07:06:00;;;;;;;1.48;1.38;;;25.10;39.80;;;-147.20;100.00;58430.41;5091670;28;20044;-19
2022/05/19 07:08:26;;;;;;;0.98;0.90;;;25.20;39.90;;;-147.20;100.00;58430.41;5091551;28;20048;-19
2022/05/19 07:10:52;;;;;;;1.35;1.27;;;25.20;39.80;;;-147.20;100.00;58430.41;5091649;28;20061;-20
2022/05/19 07:13:18;;;;;;;1.40;1.30;;;25.20;40.30;;;-147.20;100.00;58430.41;5091856;28;20480;-19
2022/05/19 07:15:43;;;;;;;1.42;1.33;;;25.20;39.80;;;-147.20;100.00;58430.41;5094292;28;20452;-19
2022/05/19 07:18:09;;;;;;;1.20;1.20;;;25.20;39.80;;;-147.20;100.00;58430.41;5094940;28;20063;-19
2022/05/19 07:20:45;;;;;;;1.40;1.30;;;25.20;39.80;;;-147.20;100.00;58430.41;5075675;28;20122;-19
2022/05/19 07:23:20;;;;;;;1.30;1.20;;;25.20;39.80;;;-147.20;100.00;58430.41;5094917;28;20399;-19
2022/05/19 07:25:47;;;;;;;1.40;1.30;;;25.20;39.70;;;-147.20;100.00;58430.41;5094901;28;20036;-19
2022/05/19 07:28:14;;;;;;;1.30;1.20;;;25.20;39.70;;;-147.20;100.00;58430.41;5094759;28;20048;-19
2022/05/19 07:30:44;;;;;;;1.13;1.13;;;25.30;39.70;;;-147.20;100.00;58430.41;5094792;28;20052;-19
2022/05/19 07:33:11;;;;;;;1.40;1.30;;;25.30;39.60;;;-147.20;100.00;58430.41;5094736;28;20062;-19
2022/05/19 07:35:37;;;;;;;1.30;1.23;;;25.30;39.60;;;-147.20;100.00;58430.41;5094737;28;20085;-19
2022/05/19 07:38:05;;;;;;;1.27;1.17;;;25.40;39.70;;;-147.20;100.00;58430.41;5094757;28;20446;-19
2022/05/19 07:40:31;;;;;;;1.30;1.27;;;25.30;39.60;;;-147.20;100.00;58430.41;5094481;28;20071;-19
2022/05/19 07:43:35;;;;;;;1.70;1.60;;;25.40;39.60;;;-147.20;100.00;58430.41;5094631;28;20105;-20
2022/05/19 07:45:46;;;;;;;2.45;1.20;;;25.40;39.60;;;-147.20;100.00;58430.41;5094466;28;20537;-19
2022/05/19 07:48:12;;;;;;;1.25;1.20;;;25.40;39.60;;;-147.20;100.00;58430.41;5094332;28;20096;-20
2022/05/19 07:50:37;;;;;;;1.50;1.40;;;25.40;39.60;;;-147.20;100.00;58430.41;5094540;28;20530;-19
2022/05/19 07:53:03;;;;;;;1.40;1.30;;;25.40;39.60;;;-147.20;100.00;58430.41;5094433;28;20046;-19
2022/05/19 07:55:29;;;;;;;1.40;1.30;;;25.40;39.60;;;-147.20;100.00;58430.41;5094389;28;20040;-19
2022/05/19 07:57:56;;;;;;;1.48;1.38;;;25.40;39.60;;;-147.20;100.00;58430.41;5094379;28;20052;-19
2022/05/19 08:00:23;;;;;;;1.20;1.10;;;25.40;39.60;;;-147.20;100.00;58430.41;5094214;28;20055;-19
2022/05/19 08:02:49;;;;;;;1.20;1.20;;;25.40;39.60;;;-147.20;100.00;58430.41;5094641;28;20135;-19
2022/05/19 08:05:15;;;;;;;1.42;1.33;;;25.40;39.70;;;-147.20;100.00;58430.41;5094723;28;20056;-19
2022/05/19 08:07:41;;;;;;;1.23;1.20;;;25.40;39.70;;;-147.20;100.00;58430.41;5094075;28;20117;-19
2022/05/19 08:10:20;;;;;;;1.25;1.15;;;25.40;39.70;;;-147.20;100.00;58430.41;5094109;28;20048;-19
2022/05/19 08:15:36;;;;;;;1.33;1.20;;;25.40;39.70;;;-147.20;100.00;58430.41;5078626;28;20056;-19
2022/05/19 08:18:10;;;;;;;1.27;1.08;;;25.40;39.70;;;-147.20;100.00;58430.41;5094160;28;20060;-19
2022/05/19 08:20:40;;;;;;;1.30;1.20;;;25.40;39.70;;;-147.20;100.00;58430.41;5094041;28;20514;-19
2022/05/19 08:23:08;;;;;;;2.35;1.50;;;25.30;39.70;;;-147.20;100.00;58430.41;5076239;28;20082;-19
2022/05/19 08:25:34;;;;;;;1.40;1.30;;;25.30;39.80;;;-147.20;100.00;58430.41;5075037;28;20044;-19
2022/05/19 08:28:00;;;;;;;1.08;1.02;;;25.20;39.80;;;-147.20;100.00;58430.41;5093846;28;20051;-18
2022/05/19 08:30:27;;;;;;;1.35;1.20;;;25.20;39.90;;;-147.20;100.00;58430.41;5093991;28;20121;-19
2022/05/19 08:32:54;;;;;;;1.40;1.30;;;25.20;39.90;;;-147.20;100.00;58430.41;5093814;28;20484;-19
2022/05/19 08:35:21;;;;;;;1.30;1.20;;;25.30;39.90;;;-147.20;100.00;58430.41;5093880;28;20369;-19
2022/05/19 08:37:50;;;;;;;1.40;1.30;;;25.20;39.90;;;-147.20;100.00;58430.41;5075717;28;20048;-19
2022/05/19 08:40:20;;;;;;;1.40;1.30;;;25.20;40.00;;;-147.20;100.00;58430.41;5093625;28;20067;-19
2022/05/19 08:42:51;;;;;;;1.50;1.40;;;25.20;40.10;;;-147.20;100.00;58430.41;5093624;28;20079;-20
2022/05/19 08:45:35;;;;;;;1.42;1.33;;;25.20;40.10;;;-147.20;100.00;58430.41;5093608;28;20051;-19
2022/05/19 08:48:07;;;;;;;1.27;1.17;;;25.20;40.10;;;-147.20;100.00;58430.41;5075217;28;20097;-18
2022/05/19 08:50:50;;;;;;;1.55;1.45;;;25.20;40.10;;;-147.20;100.00;58430.41;5075372;28;20578;-19
2022/05/19 08:53:18;;;;;;;1.00;1.00;;;25.20;40.20;;;-147.20;100.00;58430.41;5075369;28;20063;-19
2022/05/19 08:55:51;;;;;;;1.40;1.35;;;25.20;40.20;;;-147.20;100.00;58430.41;5093335;28;20036;-19
2022/05/19 08:58:49;;;;;;;1.42;1.33;;;25.20;40.20;;;-147.20;100.00;58430.41;5075165;28;20131;-19
2022/05/19 09:01:42;;;;;;;1.60;1.50;;;25.10;40.30;;;-147.20;100.00;58430.41;5055538;28;20068;-19
2022/05/19 09:04:47;;;;;;;2.03;1.67;;;25.10;40.30;;;-147.20;100.00;58430.41;5075367;28;20052;-19
2022/05/19 09:10:52;;;;;;;1.50;1.40;;;25.00;40.40;;;-147.20;100.00;58430.41;5077721;28;20048;-18
2022/05/19 09:13:35;;;;;;;1.40;1.30;;;25.00;40.40;;;-147.20;100.00;58430.41;5093124;28;20063;-18
2022/05/19 09:16:12;;;;;;;1.40;1.30;;;25.00;40.40;;;-147.20;100.00;58430.41;5075031;28;20097;-18
2022/05/19 09:18:45;;;;;;;1.45;1.35;;;25.00;40.40;;;-147.20;100.00;58430.41;5092898;28;20068;-18
2022/05/19 09:21:11;;;;;;;1.77;1.38;;;25.00;40.50;;;-147.20;100.00;58430.41;5058556;28;20040;-19
2022/05/19 09:23:40;;;;;;;1.40;1.30;;;25.00;40.60;;;-147.20;100.00;58430.41;5092973;28;20549;-18
2022/05/19 09:26:54;;;;;;;1.80;1.50;;;25.00;40.60;;;-147.20;100.00;58430.41;5093161;28;20484;-19
2022/05/19 09:29:40;;;;;;;1.35;1.25;;;25.00;40.60;;;-147.20;100.00;58430.41;5092739;28;20052;-19
2022/05/19 09:32:23;;;;;;;1.27;1.20;;;25.00;40.60;;;-147.20;100.00;58430.41;5093246;28;20117;-18
2022/05/19 09:34:52;;;;;;;1.45;1.35;;;25.00;40.70;;;-147.20;100.00;58430.41;5075864;28;20082;-18
2022/05/19 09:37:35;;;;;;;1.40;1.30;;;25.00;40.70;;;-147.20;100.00;58430.41;5091563;28;20063;-18
2022/05/19 09:40:30;;;;;;;1.40;1.30;;;25.00;40.70;;;-147.20;100.00;58430.41;5072923;28;20081;-19
2022/05/19 09:43:13;;;;;;;1.20;1.10;;;25.00;40.70;;;-147.20;100.00;58430.41;5075057;28;20120;-19
2022/05/19 09:45:50;;;;;;;1.50;1.40;;;24.90;40.70;;;-147.20;100.00;58430.41;5092722;28;20061;-18
2022/05/19 09:48:30;;;;;;;1.40;1.30;;;25.00;40.70;;;-147.20;100.00;58430.41;5092630;28;20464;-18
2022/05/19 09:51:04;;;;;;;1.10;1.10;;;24.90;40.70;;;-147.20;100.00;58430.41;5092704;28;20048;-18
2022/05/19 09:53:46;;;;;;;1.40;1.30;;;24.90;40.70;;;-147.20;100.00;58430.41;5074367;28;20052;-18
2022/05/19 09:56:17;;;;;;;1.45;1.35;;;24.90;40.70;;;-147.20;100.00;58430.41;5093058;28;20101;-20
2022/05/19 09:58:46;;;;;;;1.10;1.00;;;25.00;40.80;;;-147.20;100.00;58430.41;5092308;28;20044;-19
2022/05/19 10:01:18;;;;;;;1.20;1.10;;;25.00;40.80;;;-147.20;100.00;58430.41;5092507;28;20056;-19
2022/05/19 10:03:58;;;;;;;1.70;1.60;;;24.90;40.70;;;-147.20;100.00;58430.41;5092357;28;20072;-18
2022/05/19 10:06:54;;;;;;;1.63;1.30;;;25.00;40.70;;;-147.20;100.00;58430.41;5092282;28;20048;-19
2022/05/19 10:09:33;;;;;;;1.40;1.30;;;25.00;40.80;;;-147.20;100.00;58430.41;5092217;28;20048;-19
2022/05/19 10:12:10;;;;;;;1.55;1.45;;;25.00;41.10;;;-147.20;100.00;58430.41;5091818;28;20056;-19
2022/05/19 10:14:36;;;;;;;1.20;1.20;;;25.10;41.00;;;-147.20;100.00;58430.41;5091894;28;20090;-18
2022/05/19 10:17:40;;;;;;;3.20;1.38;;;25.10;41.50;;;-147.20;100.00;58430.41;5091883;28;20048;-19
2022/05/19 10:20:22;;;;;;;3.42;1.30;;;25.00;41.60;;;-147.20;100.00;58430.41;5074233;28;20040;-19
2022/05/19 10:23:24;;;;;;;2.35;1.45;;;25.10;41.50;;;-147.20;100.00;58430.41;5092140;28;20418;-19
2022/05/19 10:26:00;;;;;;;1.65;1.55;;;25.10;41.60;;;-147.20;100.00;58430.41;5074027;28;20056;-19